»·PEaware :: N148WT KSNA-KTNP

N148WT :: KSNA-KTNP

FLIGHT INFORMATION

Flight Status: Arrived
Operator: Privately registered:
United States
More flights under this callsign
Pilot: Vlad D. (11271)
Aircraft: Unknown
(B60T)
More flights by this aircraft type
Origin: KSNA John Wayne-Orange Co
United States
Destination: KTNP Twentynine Palms
United States
More flights between these airports :: More routes between these airports
Route: VFR
File this flight plan on PilotEdge
Remarks:
Altitude:
(Current/Filed)
11,500ft
Speed:
(Current/Filed)
180kts
Departed: 11-May-16 09:59 AM
Arrived: 11-May-16 10:47 AM
Distance/Time
Traveled:
102nm/0:47
Distance/Time
To Go:
Arrived

Flight Plot

Page will automatically refresh every two minutes.


Map Options




Map Legend


Flown Route
Filed Route
Departure Airport
Arrival Airport
Navaid (VOR, NDB)
Fix

Horizontal Profiles

Position Reports

Time Latitude Longitude Heading Altitude Ground
Speed
11-May-16 09:35 33.675262 -117.871309 219 59ft 0kts
11-May-16 09:36 33.675262 -117.871309 219 59ft 0kts
11-May-16 09:37 33.675262 -117.871309 219 59ft 0kts
11-May-16 09:38 33.675262 -117.871309 219 59ft 0kts
11-May-16 09:39 33.675260 -117.871311 219 59ft 0kts
11-May-16 09:40 33.675258 -117.871313 219 59ft 0kts
11-May-16 09:41 33.675256 -117.871315 219 59ft 0kts
11-May-16 09:42 33.675254 -117.871317 219 59ft 0kts
11-May-16 09:43 33.675252 -117.871319 219 59ft 0kts
11-May-16 09:44 33.675250 -117.871321 219 59ft 0kts
11-May-16 09:45 33.675248 -117.871323 219 59ft 0kts
11-May-16 09:46 33.675246 -117.871325 219 59ft 0kts
11-May-16 09:47 33.675244 -117.871327 219 59ft 0kts
11-May-16 09:48 33.674926 -117.870841 31 59ft 6kts
11-May-16 09:49 33.676783 -117.869145 28 59ft 0kts
11-May-16 09:50 33.676786 -117.869143 28 59ft 0kts
11-May-16 09:51 33.676789 -117.869141 28 59ft 0kts
11-May-16 09:52 33.676797 -117.869136 28 59ft 0kts
11-May-16 09:53 33.677319 -117.869224 330 59ft 7kts
11-May-16 09:54 33.679499 -117.868046 26 59ft 9kts
11-May-16 09:55 33.680849 -117.866456 116 59ft 0kts
11-May-16 09:56 33.680848 -117.866454 116 59ft 0kts
11-May-16 09:57 33.680444 -117.865828 192 59ft 4kts
11-May-16 09:58 33.662964 -117.876893 207 725ft 142kts
11-May-16 09:59 33.624608 -117.869681 140 2218ft 149kts
11-May-16 10:00 33.587812 -117.846673 171 2408ft 151kts
11-May-16 10:01 33.549166 -117.837368 166 2405ft 134kts
11-May-16 10:02 33.513511 -117.826009 163 2409ft 132kts
11-May-16 10:03 33.478493 -117.812179 159 2410ft 132kts
11-May-16 10:04 33.444202 -117.795961 156 2410ft 132kts
11-May-16 10:05 33.409743 -117.780501 165 2411ft 132kts
11-May-16 10:06 33.373386 -117.773683 171 2410ft 131kts
11-May-16 10:07 33.339139 -117.758263 162 2403ft 131kts
11-May-16 10:08 33.303435 -117.749205 161 2404ft 131kts
11-May-16 10:09 33.268443 -117.737958 160 2643ft 121kts
11-May-16 10:10 33.252470 -117.704085 58 4056ft 146kts
11-May-16 10:11 33.275680 -117.662028 58 5474ft 153kts
11-May-16 10:12 33.298569 -117.619266 57 6836ft 151kts
11-May-16 10:13 33.322710 -117.578013 64 8196ft 150kts
11-May-16 10:14 33.338856 -117.532139 66 9561ft 150kts
11-May-16 10:15 33.358699 -117.482774 64 10948ft 170kts
11-May-16 10:16 33.380567 -117.429302 64 11499ft 196kts
11-May-16 10:17 33.405818 -117.367904 63 11497ft 211kts
11-May-16 10:18 33.435467 -117.306591 50 11504ft 216kts
11-May-16 10:19 33.478136 -117.255639 43 11497ft 214kts
11-May-16 10:20 33.520463 -117.205319 45 11493ft 213kts
11-May-16 10:21 33.564145 -117.156854 41 11483ft 213kts
11-May-16 10:22 33.610384 -117.111303 38 11490ft 219kts
11-May-16 10:23 33.659389 -117.067314 36 11481ft 216kts
11-May-16 10:24 33.698046 -117.029336 44 11481ft 215kts
11-May-16 10:25 33.746084 -116.968100 48 11485ft 220kts
11-May-16 10:26 33.780211 -116.922389 49 11484ft 217kts
11-May-16 10:27 33.820789 -116.867696 48 11464ft 216kts
11-May-16 10:28 33.861463 -116.814036 48 11505ft 214kts
11-May-16 10:29 33.892536 -116.754680 73 11518ft 213kts
11-May-16 10:30 33.910828 -116.685625 72 11504ft 215kts
11-May-16 10:31 33.931250 -116.616988 70 11489ft 215kts
11-May-16 10:32 33.952948 -116.548972 70 11484ft 215kts
11-May-16 10:33 33.972970 -116.480710 72 11580ft 213kts
11-May-16 10:34 33.992080 -116.412148 72 11570ft 213kts
11-May-16 10:35 34.011025 -116.344832 71 11584ft 211kts
11-May-16 10:36 34.030519 -116.277394 71 10574ft 209kts
11-May-16 10:37 34.052146 -116.211980 63 9285ft 205kts
11-May-16 10:38 34.075441 -116.155052 64 7785ft 166kts
11-May-16 10:39 34.091379 -116.105750 69 5771ft 147kts
11-May-16 10:40 34.103974 -116.065256 71 4241ft 114kts
11-May-16 10:41 34.111873 -116.024888 77 3538ft 133kts
11-May-16 10:42 34.114818 -115.979393 89 3414ft 140kts
11-May-16 10:43 34.113834 -115.933986 92 3395ft 117kts
11-May-16 10:44 34.116893 -115.891818 42 3183ft 121kts
11-May-16 10:45 34.134690 -115.909327 267 2210ft 123kts
11-May-16 10:46 34.134398 -115.942936 267 1890ft 38kts
11-May-16 10:47 34.134357 -115.949952 268 1890ft 11kts
11-May-16 10:48 34.134964 -115.953303 12 1890ft 8kts
11-May-16 10:49 34.135195 -115.951950 89 1890ft 0kts
11-May-16 10:50 34.135195 -115.951939 89 1890ft 0kts
11-May-16 10:51 34.135202 -115.948342 90 1890ft 13kts
11-May-16 10:52 34.135232 -115.944077 84 1890ft 8kts
11-May-16 10:53 34.135957 -115.942625 165 1890ft 0kts
11-May-16 10:54 34.135905 -115.942621 177 1890ft 0kts
11-May-16 10:55 34.135903 -115.942621 177 1890ft 0kts
11-May-16 10:56 34.135074 -115.903114 265 2305ft 128kts

Navigation Log

Ident Type
Flight plan parsing failed, navigation log unavailable